sensor_id;sensor_type;location;lat;lon;timestamp;P1;durP1;ratioP1;P2;durP2;ratioP2
18568;SDS011;14780;48.316;-1.050;2022-08-19T00:02:10;3.25;;;2.08;;
18568;SDS011;14780;48.316;-1.050;2022-08-19T00:04:55;3.10;;;1.75;;
18568;SDS011;14780;48.316;-1.050;2022-08-19T00:07:41;4.03;;;2.72;;
18568;SDS011;14780;48.316;-1.050;2022-08-19T00:10:26;3.03;;;1.70;;
18568;SDS011;14780;48.316;-1.050;2022-08-19T00:13:12;3.08;;;1.85;;
18568;SDS011;14780;48.316;-1.050;2022-08-19T00:15:57;3.38;;;2.20;;
18568;SDS011;14780;48.316;-1.050;2022-08-19T00:18:43;2.63;;;1.83;;
18568;SDS011;14780;48.316;-1.050;2022-08-19T00:21:28;2.33;;;1.70;;
18568;SDS011;14780;48.316;-1.050;2022-08-19T00:24:13;2.38;;;1.88;;
18568;SDS011;14780;48.316;-1.050;2022-08-19T00:26:59;2.80;;;1.80;;
18568;SDS011;14780;48.316;-1.050;2022-08-19T00:29:45;2.50;;;1.95;;
18568;SDS011;14780;48.316;-1.050;2022-08-19T00:32:30;2.60;;;1.77;;
18568;SDS011;14780;48.316;-1.050;2022-08-19T00:35:14;3.35;;;1.70;;
18568;SDS011;14780;48.316;-1.050;2022-08-19T00:38:00;2.92;;;2.10;;
18568;SDS011;14780;48.316;-1.050;2022-08-19T00:40:46;2.35;;;1.92;;
18568;SDS011;14780;48.316;-1.050;2022-08-19T00:43:30;2.13;;;1.60;;
18568;SDS011;14780;48.316;-1.050;2022-08-19T00:46:16;2.60;;;1.90;;
18568;SDS011;14780;48.316;-1.050;2022-08-19T00:49:02;2.63;;;1.90;;
18568;SDS011;14780;48.316;-1.050;2022-08-19T00:52:00;2.65;;;1.77;;
18568;SDS011;14780;48.316;-1.050;2022-08-19T00:54:50;2.63;;;1.85;;
18568;SDS011;14780;48.316;-1.050;2022-08-19T00:57:40;3.17;;;2.10;;
18568;SDS011;14780;48.316;-1.050;2022-08-19T01:00:29;2.20;;;1.85;;
18568;SDS011;14780;48.316;-1.050;2022-08-19T01:03:20;2.78;;;2.28;;
18568;SDS011;14780;48.316;-1.050;2022-08-19T01:06:06;3.67;;;2.00;;
18568;SDS011;14780;48.316;-1.050;2022-08-19T01:08:51;2.50;;;1.92;;
18568;SDS011;14780;48.316;-1.050;2022-08-19T01:11:38;3.25;;;1.95;;
18568;SDS011;14780;48.316;-1.050;2022-08-19T01:14:27;2.95;;;1.88;;
18568;SDS011;14780;48.316;-1.050;2022-08-19T01:17:13;2.65;;;1.88;;
18568;SDS011;14780;48.316;-1.050;2022-08-19T01:19:59;2.50;;;1.83;;
18568;SDS011;14780;48.316;-1.050;2022-08-19T01:22:45;4.00;;;1.90;;
18568;SDS011;14780;48.316;-1.050;2022-08-19T01:25:53;2.60;;;1.90;;
18568;SDS011;14780;48.316;-1.050;2022-08-19T01:28:38;3.58;;;2.00;;
18568;SDS011;14780;48.316;-1.050;2022-08-19T01:31:25;2.95;;;1.92;;
18568;SDS011;14780;48.316;-1.050;2022-08-19T01:34:14;2.58;;;1.77;;
18568;SDS011;14780;48.316;-1.050;2022-08-19T01:36:58;2.90;;;1.90;;
18568;SDS011;14780;48.316;-1.050;2022-08-19T01:39:45;2.63;;;1.73;;
18568;SDS011;14780;48.316;-1.050;2022-08-19T01:42:30;2.58;;;1.70;;
18568;SDS011;14780;48.316;-1.050;2022-08-19T01:45:16;2.80;;;1.90;;
18568;SDS011;14780;48.316;-1.050;2022-08-19T01:48:03;2.33;;;1.58;;
18568;SDS011;14780;48.316;-1.050;2022-08-19T01:50:48;3.17;;;1.70;;
18568;SDS011;14780;48.316;-1.050;2022-08-19T01:53:33;2.30;;;1.58;;
18568;SDS011;14780;48.316;-1.050;2022-08-19T01:56:19;3.30;;;2.20;;
18568;SDS011;14780;48.316;-1.050;2022-08-19T01:59:06;2.13;;;1.60;;
18568;SDS011;14780;48.316;-1.050;2022-08-19T02:01:55;2.20;;;1.55;;
18568;SDS011;14780;48.316;-1.050;2022-08-19T02:04:41;2.00;;;1.48;;
18568;SDS011;14780;48.316;-1.050;2022-08-19T02:07:25;2.95;;;1.73;;
18568;SDS011;14780;48.316;-1.050;2022-08-19T02:10:13;2.50;;;1.70;;
18568;SDS011;14780;48.316;-1.050;2022-08-19T02:13:00;2.97;;;1.60;;
18568;SDS011;14780;48.316;-1.050;2022-08-19T02:15:46;2.45;;;1.50;;
18568;SDS011;14780;48.316;-1.050;2022-08-19T02:18:31;2.92;;;1.85;;
18568;SDS011;14780;48.316;-1.050;2022-08-19T02:21:18;2.25;;;1.75;;
18568;SDS011;14780;48.316;-1.050;2022-08-19T02:24:05;1.80;;;1.30;;
18568;SDS011;14780;48.316;-1.050;2022-08-19T02:26:50;2.13;;;1.70;;
18568;SDS011;14780;48.316;-1.050;2022-08-19T02:29:35;2.22;;;1.70;;
18568;SDS011;14780;48.316;-1.050;2022-08-19T02:32:20;2.40;;;1.70;;
18568;SDS011;14780;48.316;-1.050;2022-08-19T02:35:05;1.98;;;1.42;;
18568;SDS011;14780;48.316;-1.050;2022-08-19T02:37:50;2.40;;;1.70;;
18568;SDS011;14780;48.316;-1.050;2022-08-19T02:40:55;3.17;;;1.70;;
18568;SDS011;14780;48.316;-1.050;2022-08-19T02:43:45;2.38;;;1.75;;
18568;SDS011;14780;48.316;-1.050;2022-08-19T02:46:31;2.10;;;1.73;;
18568;SDS011;14780;48.316;-1.050;2022-08-19T02:49:17;2.20;;;1.60;;
18568;SDS011;14780;48.316;-1.050;2022-08-19T02:52:02;2.60;;;1.65;;
18568;SDS011;14780;48.316;-1.050;2022-08-19T02:54:47;2.42;;;1.70;;
18568;SDS011;14780;48.316;-1.050;2022-08-19T02:57:33;2.15;;;1.45;;
18568;SDS011;14780;48.316;-1.050;2022-08-19T03:00:17;2.45;;;1.42;;
18568;SDS011;14780;48.316;-1.050;2022-08-19T03:03:02;2.25;;;1.73;;
18568;SDS011;14780;48.316;-1.050;2022-08-19T03:05:47;1.85;;;1.33;;
18568;SDS011;14780;48.316;-1.050;2022-08-19T03:08:32;2.58;;;1.70;;
18568;SDS011;14780;48.316;-1.050;2022-08-19T03:11:22;2.72;;;1.67;;
18568;SDS011;14780;48.316;-1.050;2022-08-19T03:14:09;1.90;;;1.50;;
18568;SDS011;14780;48.316;-1.050;2022-08-19T03:16:55;3.08;;;1.60;;
18568;SDS011;14780;48.316;-1.050;2022-08-19T03:19:39;2.20;;;1.75;;
18568;SDS011;14780;48.316;-1.050;2022-08-19T03:22:24;2.40;;;1.63;;
18568;SDS011;14780;48.316;-1.050;2022-08-19T03:25:09;2.28;;;1.60;;
18568;SDS011;14780;48.316;-1.050;2022-08-19T03:27:55;1.83;;;1.30;;
18568;SDS011;14780;48.316;-1.050;2022-08-19T03:30:41;2.30;;;1.40;;
18568;SDS011;14780;48.316;-1.050;2022-08-19T03:33:27;2.15;;;1.60;;
18568;SDS011;14780;48.316;-1.050;2022-08-19T03:36:14;1.90;;;1.38;;
18568;SDS011;14780;48.316;-1.050;2022-08-19T03:39:01;2.20;;;1.60;;
18568;SDS011;14780;48.316;-1.050;2022-08-19T03:41:47;2.55;;;1.60;;
18568;SDS011;14780;48.316;-1.050;2022-08-19T03:44:33;2.08;;;1.35;;
18568;SDS011;14780;48.316;-1.050;2022-08-19T03:47:21;1.80;;;1.40;;
18568;SDS011;14780;48.316;-1.050;2022-08-19T03:50:06;1.95;;;1.40;;
18568;SDS011;14780;48.316;-1.050;2022-08-19T03:52:52;1.70;;;1.40;;
18568;SDS011;14780;48.316;-1.050;2022-08-19T03:55:40;2.33;;;1.75;;
18568;SDS011;14780;48.316;-1.050;2022-08-19T03:58:27;2.42;;;1.55;;
18568;SDS011;14780;48.316;-1.050;2022-08-19T04:01:15;3.00;;;1.45;;
18568;SDS011;14780;48.316;-1.050;2022-08-19T04:04:03;1.88;;;1.38;;
18568;SDS011;14780;48.316;-1.050;2022-08-19T04:06:48;2.88;;;1.58;;
18568;SDS011;14780;48.316;-1.050;2022-08-19T04:09:35;2.08;;;1.30;;
18568;SDS011;14780;48.316;-1.050;2022-08-19T04:12:20;2.30;;;1.50;;
18568;SDS011;14780;48.316;-1.050;2022-08-19T04:15:05;2.28;;;1.50;;
18568;SDS011;14780;48.316;-1.050;2022-08-19T04:17:51;2.60;;;1.58;;
18568;SDS011;14780;48.316;-1.050;2022-08-19T04:20:43;1.83;;;1.17;;
18568;SDS011;14780;48.316;-1.050;2022-08-19T04:23:30;2.47;;;1.42;;
18568;SDS011;14780;48.316;-1.050;2022-08-19T04:26:16;1.92;;;1.35;;
18568;SDS011;14780;48.316;-1.050;2022-08-19T04:29:07;2.00;;;1.60;;
18568;SDS011;14780;48.316;-1.050;2022-08-19T04:31:55;1.88;;;1.13;;
18568;SDS011;14780;48.316;-1.050;2022-08-19T04:34:41;1.98;;;1.38;;
18568;SDS011;14780;48.316;-1.050;2022-08-19T04:37:26;1.80;;;1.40;;
18568;SDS011;14780;48.316;-1.050;2022-08-19T04:40:15;2.45;;;1.45;;
18568;SDS011;14780;48.316;-1.050;2022-08-19T04:43:18;2.50;;;1.50;;
18568;SDS011;14780;48.316;-1.050;2022-08-19T04:46:10;1.90;;;1.20;;
18568;SDS011;14780;48.316;-1.050;2022-08-19T04:48:56;1.80;;;1.30;;
18568;SDS011;14780;48.316;-1.050;2022-08-19T04:51:42;2.45;;;1.42;;
18568;SDS011;14780;48.316;-1.050;2022-08-19T04:54:28;2.88;;;1.77;;
18568;SDS011;14780;48.316;-1.050;2022-08-19T04:57:13;1.80;;;1.30;;
18568;SDS011;14780;48.316;-1.050;2022-08-19T04:59:58;2.50;;;1.42;;
18568;SDS011;14780;48.316;-1.050;2022-08-19T05:02:43;2.40;;;1.40;;
18568;SDS011;14780;48.316;-1.050;2022-08-19T05:05:28;1.88;;;1.40;;
18568;SDS011;14780;48.316;-1.050;2022-08-19T05:08:16;1.98;;;1.40;;
18568;SDS011;14780;48.316;-1.050;2022-08-19T05:11:08;1.73;;;1.20;;
18568;SDS011;14780;48.316;-1.050;2022-08-19T05:13:55;1.60;;;1.13;;
18568;SDS011;14780;48.316;-1.050;2022-08-19T05:16:40;1.63;;;1.35;;
18568;SDS011;14780;48.316;-1.050;2022-08-19T05:19:25;2.67;;;1.92;;
18568;SDS011;14780;48.316;-1.050;2022-08-19T05:22:29;1.92;;;1.13;;
18568;SDS011;14780;48.316;-1.050;2022-08-19T05:25:19;1.67;;;1.20;;
18568;SDS011;14780;48.316;-1.050;2022-08-19T05:28:05;1.88;;;1.35;;
18568;SDS011;14780;48.316;-1.050;2022-08-19T05:30:50;1.60;;;1.02;;
18568;SDS011;14780;48.316;-1.050;2022-08-19T05:33:35;1.45;;;1.02;;
18568;SDS011;14780;48.316;-1.050;2022-08-19T05:36:20;1.52;;;1.08;;
18568;SDS011;14780;48.316;-1.050;2022-08-19T05:39:06;1.90;;;1.10;;
18568;SDS011;14780;48.316;-1.050;2022-08-19T05:41:57;1.50;;;1.00;;
18568;SDS011;14780;48.316;-1.050;2022-08-19T05:44:44;2.20;;;1.33;;
18568;SDS011;14780;48.316;-1.050;2022-08-19T05:47:29;2.80;;;1.23;;
18568;SDS011;14780;48.316;-1.050;2022-08-19T05:50:14;1.85;;;1.08;;
18568;SDS011;14780;48.316;-1.050;2022-08-19T05:53:01;1.85;;;1.25;;
18568;SDS011;14780;48.316;-1.050;2022-08-19T05:55:45;1.60;;;1.00;;
18568;SDS011;14780;48.316;-1.050;2022-08-19T05:58:30;1.55;;;1.00;;
18568;SDS011;14780;48.316;-1.050;2022-08-19T06:01:17;2.30;;;1.08;;
18568;SDS011;14780;48.316;-1.050;2022-08-19T06:04:03;2.60;;;1.50;;
18568;SDS011;14780;48.316;-1.050;2022-08-19T06:06:49;2.60;;;1.58;;
18568;SDS011;14780;48.316;-1.050;2022-08-19T06:09:35;2.67;;;1.58;;
18568;SDS011;14780;48.316;-1.050;2022-08-19T06:12:20;3.97;;;1.75;;
18568;SDS011;14780;48.316;-1.050;2022-08-19T06:15:16;2.30;;;1.30;;
18568;SDS011;14780;48.316;-1.050;2022-08-19T06:18:01;2.65;;;1.60;;
18568;SDS011;14780;48.316;-1.050;2022-08-19T06:20:47;3.10;;;1.70;;
18568;SDS011;14780;48.316;-1.050;2022-08-19T06:23:32;2.33;;;1.20;;
18568;SDS011;14780;48.316;-1.050;2022-08-19T06:26:18;5.95;;;1.52;;
18568;SDS011;14780;48.316;-1.050;2022-08-19T06:29:05;2.45;;;1.23;;
18568;SDS011;14780;48.316;-1.050;2022-08-19T06:31:52;2.75;;;1.50;;
18568;SDS011;14780;48.316;-1.050;2022-08-19T06:34:39;2.42;;;1.30;;
18568;SDS011;14780;48.316;-1.050;2022-08-19T06:37:24;2.53;;;1.27;;
18568;SDS011;14780;48.316;-1.050;2022-08-19T06:40:09;2.38;;;1.40;;
18568;SDS011;14780;48.316;-1.050;2022-08-19T06:42:55;3.40;;;1.35;;
18568;SDS011;14780;48.316;-1.050;2022-08-19T06:45:42;2.85;;;1.65;;
18568;SDS011;14780;48.316;-1.050;2022-08-19T06:48:28;3.03;;;1.67;;
18568;SDS011;14780;48.316;-1.050;2022-08-19T06:51:16;2.75;;;1.35;;
18568;SDS011;14780;48.316;-1.050;2022-08-19T06:54:04;2.30;;;1.20;;
18568;SDS011;14780;48.316;-1.050;2022-08-19T06:56:49;2.92;;;1.42;;
18568;SDS011;14780;48.316;-1.050;2022-08-19T06:59:34;2.72;;;1.27;;
18568;SDS011;14780;48.316;-1.050;2022-08-19T07:02:19;2.47;;;1.60;;
18568;SDS011;14780;48.316;-1.050;2022-08-19T07:05:04;2.85;;;1.30;;
18568;SDS011;14780;48.316;-1.050;2022-08-19T07:07:50;2.80;;;1.45;;
18568;SDS011;14780;48.316;-1.050;2022-08-19T07:10:35;4.28;;;1.70;;
18568;SDS011;14780;48.316;-1.050;2022-08-19T07:13:20;2.33;;;1.40;;
18568;SDS011;14780;48.316;-1.050;2022-08-19T07:16:06;2.67;;;1.40;;
18568;SDS011;14780;48.316;-1.050;2022-08-19T07:18:53;1.95;;;1.50;;
18568;SDS011;14780;48.316;-1.050;2022-08-19T07:21:39;2.80;;;1.33;;
18568;SDS011;14780;48.316;-1.050;2022-08-19T07:24:25;3.65;;;1.52;;
18568;SDS011;14780;48.316;-1.050;2022-08-19T07:27:13;2.97;;;1.50;;
18568;SDS011;14780;48.316;-1.050;2022-08-19T07:29:58;2.65;;;1.50;;
18568;SDS011;14780;48.316;-1.050;2022-08-19T07:32:43;2.90;;;1.40;;
18568;SDS011;14780;48.316;-1.050;2022-08-19T07:35:27;2.60;;;1.40;;
18568;SDS011;14780;48.316;-1.050;2022-08-19T07:38:12;2.60;;;1.30;;
18568;SDS011;14780;48.316;-1.050;2022-08-19T07:40:58;2.00;;;1.20;;
18568;SDS011;14780;48.316;-1.050;2022-08-19T07:43:44;3.13;;;1.65;;
18568;SDS011;14780;48.316;-1.050;2022-08-19T07:46:30;2.88;;;1.50;;
18568;SDS011;14780;48.316;-1.050;2022-08-19T07:49:15;4.25;;;1.70;;
18568;SDS011;14780;48.316;-1.050;2022-08-19T07:52:05;3.22;;;1.77;;
18568;SDS011;14780;48.316;-1.050;2022-08-19T07:54:51;3.42;;;1.40;;
18568;SDS011;14780;48.316;-1.050;2022-08-19T07:57:36;3.15;;;1.35;;
18568;SDS011;14780;48.316;-1.050;2022-08-19T08:00:22;2.53;;;1.40;;
18568;SDS011;14780;48.316;-1.050;2022-08-19T08:03:07;2.40;;;1.40;;
18568;SDS011;14780;48.316;-1.050;2022-08-19T08:05:52;2.55;;;1.35;;
18568;SDS011;14780;48.316;-1.050;2022-08-19T08:08:56;2.20;;;1.38;;
18568;SDS011;14780;48.316;-1.050;2022-08-19T08:12:05;2.60;;;1.65;;
18568;SDS011;14780;48.316;-1.050;2022-08-19T08:14:55;3.80;;;1.42;;
18568;SDS011;14780;48.316;-1.050;2022-08-19T08:17:42;1.92;;;1.33;;
18568;SDS011;14780;48.316;-1.050;2022-08-19T08:20:28;3.90;;;1.60;;
18568;SDS011;14780;48.316;-1.050;2022-08-19T08:23:13;2.90;;;1.40;;
18568;SDS011;14780;48.316;-1.050;2022-08-19T08:26:08;2.75;;;1.52;;
18568;SDS011;14780;48.316;-1.050;2022-08-19T08:28:53;2.70;;;1.63;;
18568;SDS011;14780;48.316;-1.050;2022-08-19T08:31:41;3.03;;;1.23;;
18568;SDS011;14780;48.316;-1.050;2022-08-19T08:34:27;3.55;;;1.92;;
18568;SDS011;14780;48.316;-1.050;2022-08-19T08:37:12;2.78;;;1.65;;
18568;SDS011;14780;48.316;-1.050;2022-08-19T08:39:57;2.17;;;1.30;;
18568;SDS011;14780;48.316;-1.050;2022-08-19T08:42:44;2.97;;;1.33;;
18568;SDS011;14780;48.316;-1.050;2022-08-19T08:46:09;3.20;;;1.70;;
18568;SDS011;14780;48.316;-1.050;2022-08-19T08:52:34;2.58;;;1.23;;
18568;SDS011;14780;48.316;-1.050;2022-08-19T08:55:08;3.20;;;1.23;;
18568;SDS011;14780;48.316;-1.050;2022-08-19T08:58:03;3.38;;;1.30;;
18568;SDS011;14780;48.316;-1.050;2022-08-19T09:00:50;3.13;;;1.25;;
18568;SDS011;14780;48.316;-1.050;2022-08-19T09:03:36;2.55;;;1.40;;
18568;SDS011;14780;48.316;-1.050;2022-08-19T09:06:27;3.55;;;1.30;;
18568;SDS011;14780;48.316;-1.050;2022-08-19T09:09:14;2.80;;;1.50;;
18568;SDS011;14780;48.316;-1.050;2022-08-19T09:15:15;2.88;;;1.10;;
18568;SDS011;14780;48.316;-1.050;2022-08-19T09:18:07;2.67;;;1.33;;
18568;SDS011;14780;48.316;-1.050;2022-08-19T09:20:52;3.90;;;1.58;;
18568;SDS011;14780;48.316;-1.050;2022-08-19T09:23:37;3.38;;;1.40;;
18568;SDS011;14780;48.316;-1.050;2022-08-19T09:26:22;3.13;;;1.65;;
18568;SDS011;14780;48.316;-1.050;2022-08-19T09:29:07;4.75;;;1.48;;
18568;SDS011;14780;48.316;-1.050;2022-08-19T09:31:53;4.07;;;1.80;;
18568;SDS011;14780;48.316;-1.050;2022-08-19T09:34:38;2.95;;;1.60;;
18568;SDS011;14780;48.316;-1.050;2022-08-19T09:37:23;5.72;;;1.45;;
18568;SDS011;14780;48.316;-1.050;2022-08-19T09:40:09;2.65;;;1.35;;
18568;SDS011;14780;48.316;-1.050;2022-08-19T09:42:55;4.45;;;1.33;;
18568;SDS011;14780;48.316;-1.050;2022-08-19T09:45:41;2.80;;;1.30;;
18568;SDS011;14780;48.316;-1.050;2022-08-19T09:48:26;3.70;;;1.67;;
18568;SDS011;14780;48.316;-1.050;2022-08-19T09:51:12;3.90;;;1.52;;
18568;SDS011;14780;48.316;-1.050;2022-08-19T09:54:01;3.95;;;1.58;;
18568;SDS011;14780;48.316;-1.050;2022-08-19T09:56:47;4.25;;;1.83;;
18568;SDS011;14780;48.316;-1.050;2022-08-19T09:59:32;4.25;;;1.50;;
18568;SDS011;14780;48.316;-1.050;2022-08-19T10:02:17;2.95;;;1.50;;
18568;SDS011;14780;48.316;-1.050;2022-08-19T10:05:02;3.47;;;1.55;;
18568;SDS011;14780;48.316;-1.050;2022-08-19T10:08:06;3.40;;;1.40;;
18568;SDS011;14780;48.316;-1.050;2022-08-19T10:10:51;3.63;;;1.17;;
18568;SDS011;14780;48.316;-1.050;2022-08-19T10:13:36;2.90;;;1.33;;
18568;SDS011;14780;48.316;-1.050;2022-08-19T10:16:22;3.60;;;1.40;;
18568;SDS011;14780;48.316;-1.050;2022-08-19T10:19:08;2.50;;;1.40;;
18568;SDS011;14780;48.316;-1.050;2022-08-19T10:21:53;3.47;;;1.35;;
18568;SDS011;14780;48.316;-1.050;2022-08-19T10:24:38;2.70;;;1.60;;
18568;SDS011;14780;48.316;-1.050;2022-08-19T10:27:23;4.15;;;1.73;;
18568;SDS011;14780;48.316;-1.050;2022-08-19T10:30:08;3.00;;;1.50;;
18568;SDS011;14780;48.316;-1.050;2022-08-19T10:32:54;3.38;;;1.50;;
18568;SDS011;14780;48.316;-1.050;2022-08-19T10:35:39;2.47;;;1.30;;
18568;SDS011;14780;48.316;-1.050;2022-08-19T10:38:23;5.05;;;1.73;;
18568;SDS011;14780;48.316;-1.050;2022-08-19T10:41:10;3.90;;;1.65;;
18568;SDS011;14780;48.316;-1.050;2022-08-19T10:46:46;2.83;;;1.08;;
18568;SDS011;14780;48.316;-1.050;2022-08-19T10:49:30;2.58;;;1.05;;
18568;SDS011;14780;48.316;-1.050;2022-08-19T10:52:35;4.15;;;1.55;;
18568;SDS011;14780;48.316;-1.050;2022-08-19T10:55:21;2.45;;;1.10;;
18568;SDS011;14780;48.316;-1.050;2022-08-19T10:58:27;2.60;;;1.38;;
18568;SDS011;14780;48.316;-1.050;2022-08-19T11:01:11;2.90;;;1.15;;
18568;SDS011;14780;48.316;-1.050;2022-08-19T11:03:56;1.40;;;1.00;;
18568;SDS011;14780;48.316;-1.050;2022-08-19T11:06:41;2.05;;;1.23;;
18568;SDS011;14780;48.316;-1.050;2022-08-19T11:09:26;3.20;;;1.13;;
18568;SDS011;14780;48.316;-1.050;2022-08-19T11:12:12;4.22;;;1.70;;
18568;SDS011;14780;48.316;-1.050;2022-08-19T11:14:57;2.25;;;1.08;;
18568;SDS011;14780;48.316;-1.050;2022-08-19T11:17:41;3.20;;;1.25;;
18568;SDS011;14780;48.316;-1.050;2022-08-19T11:20:27;3.50;;;1.30;;
18568;SDS011;14780;48.316;-1.050;2022-08-19T11:23:12;2.00;;;1.10;;
18568;SDS011;14780;48.316;-1.050;2022-08-19T11:25:57;2.55;;;1.27;;
18568;SDS011;14780;48.316;-1.050;2022-08-19T11:28:43;2.53;;;1.02;;
18568;SDS011;14780;48.316;-1.050;2022-08-19T11:31:29;2.65;;;1.25;;
18568;SDS011;14780;48.316;-1.050;2022-08-19T11:34:17;2.75;;;1.20;;
18568;SDS011;14780;48.316;-1.050;2022-08-19T11:37:05;3.65;;;1.15;;
18568;SDS011;14780;48.316;-1.050;2022-08-19T11:39:50;2.42;;;1.20;;
18568;SDS011;14780;48.316;-1.050;2022-08-19T11:42:35;3.70;;;1.20;;
18568;SDS011;14780;48.316;-1.050;2022-08-19T11:45:38;3.28;;;1.15;;
18568;SDS011;14780;48.316;-1.050;2022-08-19T11:48:22;3.28;;;1.20;;
18568;SDS011;14780;48.316;-1.050;2022-08-19T11:51:10;2.35;;;1.10;;
18568;SDS011;14780;48.316;-1.050;2022-08-19T11:53:58;3.63;;;1.35;;
18568;SDS011;14780;48.316;-1.050;2022-08-19T11:56:44;3.20;;;1.25;;
18568;SDS011;14780;48.316;-1.050;2022-08-19T11:59:29;3.38;;;1.25;;
18568;SDS011;14780;48.316;-1.050;2022-08-19T12:02:14;4.13;;;1.50;;
18568;SDS011;14780;48.316;-1.050;2022-08-19T12:04:59;3.22;;;1.27;;
18568;SDS011;14780;48.316;-1.050;2022-08-19T12:07:46;4.53;;;1.25;;
18568;SDS011;14780;48.316;-1.050;2022-08-19T12:10:31;2.83;;;1.40;;
18568;SDS011;14780;48.316;-1.050;2022-08-19T12:13:17;3.10;;;1.73;;
18568;SDS011;14780;48.316;-1.050;2022-08-19T12:16:08;3.10;;;1.35;;
18568;SDS011;14780;48.316;-1.050;2022-08-19T12:19:03;3.72;;;1.70;;
18568;SDS011;14780;48.316;-1.050;2022-08-19T12:21:48;2.78;;;1.20;;
18568;SDS011;14780;48.316;-1.050;2022-08-19T12:24:34;3.38;;;1.27;;
18568;SDS011;14780;48.316;-1.050;2022-08-19T12:27:19;2.25;;;1.38;;
18568;SDS011;14780;48.316;-1.050;2022-08-19T12:30:05;2.95;;;1.30;;
18568;SDS011;14780;48.316;-1.050;2022-08-19T12:32:53;3.72;;;1.58;;
18568;SDS011;14780;48.316;-1.050;2022-08-19T12:35:39;4.18;;;1.70;;
18568;SDS011;14780;48.316;-1.050;2022-08-19T12:38:26;2.50;;;1.20;;
18568;SDS011;14780;48.316;-1.050;2022-08-19T12:41:12;3.97;;;1.30;;
18568;SDS011;14780;48.316;-1.050;2022-08-19T12:43:59;2.78;;;1.20;;
18568;SDS011;14780;48.316;-1.050;2022-08-19T12:46:44;2.92;;;1.33;;
18568;SDS011;14780;48.316;-1.050;2022-08-19T12:49:30;2.85;;;1.10;;
18568;SDS011;14780;48.316;-1.050;2022-08-19T12:52:17;4.38;;;1.20;;
18568;SDS011;14780;48.316;-1.050;2022-08-19T12:55:05;3.65;;;1.50;;
18568;SDS011;14780;48.316;-1.050;2022-08-19T12:57:51;3.53;;;1.30;;
18568;SDS011;14780;48.316;-1.050;2022-08-19T13:00:36;3.88;;;1.40;;
18568;SDS011;14780;48.316;-1.050;2022-08-19T13:03:21;4.85;;;1.50;;
18568;SDS011;14780;48.316;-1.050;2022-08-19T13:06:12;2.08;;;1.13;;
18568;SDS011;14780;48.316;-1.050;2022-08-19T13:08:58;4.05;;;1.23;;
18568;SDS011;14780;48.316;-1.050;2022-08-19T13:11:43;2.78;;;1.10;;
18568;SDS011;14780;48.316;-1.050;2022-08-19T13:14:28;5.45;;;1.33;;
18568;SDS011;14780;48.316;-1.050;2022-08-19T13:17:14;3.65;;;1.23;;
18568;SDS011;14780;48.316;-1.050;2022-08-19T13:20:00;2.22;;;1.20;;
18568;SDS011;14780;48.316;-1.050;2022-08-19T13:22:45;3.58;;;1.83;;
18568;SDS011;14780;48.316;-1.050;2022-08-19T13:25:31;2.38;;;1.25;;
18568;SDS011;14780;48.316;-1.050;2022-08-19T13:28:15;5.95;;;1.42;;
18568;SDS011;14780;48.316;-1.050;2022-08-19T13:31:00;2.33;;;1.30;;
18568;SDS011;14780;48.316;-1.050;2022-08-19T13:34:04;2.65;;;1.00;;
18568;SDS011;14780;48.316;-1.050;2022-08-19T13:36:49;3.03;;;1.33;;
18568;SDS011;14780;48.316;-1.050;2022-08-19T13:39:35;4.47;;;1.20;;
18568;SDS011;14780;48.316;-1.050;2022-08-19T13:42:20;3.60;;;1.40;;
18568;SDS011;14780;48.316;-1.050;2022-08-19T13:45:05;5.05;;;1.55;;
18568;SDS011;14780;48.316;-1.050;2022-08-19T13:47:52;3.25;;;1.17;;
18568;SDS011;14780;48.316;-1.050;2022-08-19T13:50:42;4.03;;;1.30;;
18568;SDS011;14780;48.316;-1.050;2022-08-19T13:53:28;3.28;;;1.30;;
18568;SDS011;14780;48.316;-1.050;2022-08-19T13:56:15;2.53;;;1.33;;
18568;SDS011;14780;48.316;-1.050;2022-08-19T13:59:03;2.95;;;1.40;;
18568;SDS011;14780;48.316;-1.050;2022-08-19T14:01:47;2.63;;;1.02;;
18568;SDS011;14780;48.316;-1.050;2022-08-19T14:04:33;2.92;;;1.20;;
18568;SDS011;14780;48.316;-1.050;2022-08-19T14:07:17;3.83;;;1.08;;
18568;SDS011;14780;48.316;-1.050;2022-08-19T14:10:03;1.77;;;0.93;;
18568;SDS011;14780;48.316;-1.050;2022-08-19T14:12:54;2.10;;;1.15;;
18568;SDS011;14780;48.316;-1.050;2022-08-19T14:15:41;3.83;;;1.30;;
18568;SDS011;14780;48.316;-1.050;2022-08-19T14:18:26;2.25;;;1.00;;
18568;SDS011;14780;48.316;-1.050;2022-08-19T14:21:15;2.28;;;1.08;;
18568;SDS011;14780;48.316;-1.050;2022-08-19T14:24:03;4.18;;;1.05;;
18568;SDS011;14780;48.316;-1.050;2022-08-19T14:26:48;3.15;;;1.15;;
18568;SDS011;14780;48.316;-1.050;2022-08-19T14:29:33;2.63;;;1.00;;
18568;SDS011;14780;48.316;-1.050;2022-08-19T14:32:18;2.10;;;1.08;;
18568;SDS011;14780;48.316;-1.050;2022-08-19T14:35:04;4.07;;;0.95;;
18568;SDS011;14780;48.316;-1.050;2022-08-19T14:37:50;1.75;;;0.77;;
18568;SDS011;14780;48.316;-1.050;2022-08-19T14:40:38;1.95;;;0.90;;
18568;SDS011;14780;48.316;-1.050;2022-08-19T14:43:24;2.20;;;0.90;;
18568;SDS011;14780;48.316;-1.050;2022-08-19T14:46:08;1.77;;;0.88;;
18568;SDS011;14780;48.316;-1.050;2022-08-19T14:48:54;2.55;;;1.10;;
18568;SDS011;14780;48.316;-1.050;2022-08-19T14:51:40;1.92;;;0.95;;
18568;SDS011;14780;48.316;-1.050;2022-08-19T14:54:24;1.58;;;0.82;;
18568;SDS011;14780;48.316;-1.050;2022-08-19T14:57:11;1.92;;;0.90;;
18568;SDS011;14780;48.316;-1.050;2022-08-19T14:59:58;0.98;;;0.57;;
18568;SDS011;14780;48.316;-1.050;2022-08-19T15:02:43;3.53;;;1.15;;
18568;SDS011;14780;48.316;-1.050;2022-08-19T15:05:28;1.60;;;0.63;;
18568;SDS011;14780;48.316;-1.050;2022-08-19T15:08:12;2.25;;;0.88;;
18568;SDS011;14780;48.316;-1.050;2022-08-19T15:10:57;2.00;;;1.10;;
18568;SDS011;14780;48.316;-1.050;2022-08-19T15:13:44;1.58;;;0.68;;
18568;SDS011;14780;48.316;-1.050;2022-08-19T15:16:30;1.77;;;0.80;;
18568;SDS011;14780;48.316;-1.050;2022-08-19T15:19:15;2.20;;;0.70;;
18568;SDS011;14780;48.316;-1.050;2022-08-19T15:21:59;1.67;;;0.68;;
18568;SDS011;14780;48.316;-1.050;2022-08-19T15:24:45;1.58;;;0.60;;
18568;SDS011;14780;48.316;-1.050;2022-08-19T15:27:30;1.92;;;0.60;;
18568;SDS011;14780;48.316;-1.050;2022-08-19T15:30:18;2.40;;;0.68;;
18568;SDS011;14780;48.316;-1.050;2022-08-19T15:33:08;2.38;;;0.75;;
18568;SDS011;14780;48.316;-1.050;2022-08-19T15:35:57;1.92;;;0.57;;
18568;SDS011;14780;48.316;-1.050;2022-08-19T15:38:42;1.35;;;0.50;;
18568;SDS011;14780;48.316;-1.050;2022-08-19T15:41:28;1.80;;;0.52;;
18568;SDS011;14780;48.316;-1.050;2022-08-19T15:44:15;1.30;;;0.50;;
18568;SDS011;14780;48.316;-1.050;2022-08-19T15:47:01;0.98;;;0.50;;
18568;SDS011;14780;48.316;-1.050;2022-08-19T15:49:47;1.85;;;0.50;;
18568;SDS011;14780;48.316;-1.050;2022-08-19T15:52:31;1.98;;;0.40;;
18568;SDS011;14780;48.316;-1.050;2022-08-19T15:55:21;2.90;;;0.82;;
18568;SDS011;14780;48.316;-1.050;2022-08-19T15:58:11;3.33;;;0.70;;
18568;SDS011;14780;48.316;-1.050;2022-08-19T16:01:16;2.05;;;0.70;;
18568;SDS011;14780;48.316;-1.050;2022-08-19T16:04:20;1.55;;;0.55;;
18568;SDS011;14780;48.316;-1.050;2022-08-19T16:07:23;1.75;;;0.50;;
18568;SDS011;14780;48.316;-1.050;2022-08-19T16:10:08;3.13;;;0.75;;
18568;SDS011;14780;48.316;-1.050;2022-08-19T16:12:55;4.28;;;1.05;;
18568;SDS011;14780;48.316;-1.050;2022-08-19T16:15:40;4.95;;;0.90;;
18568;SDS011;14780;48.316;-1.050;2022-08-19T16:18:25;4.53;;;1.33;;
18568;SDS011;14780;48.316;-1.050;2022-08-19T16:21:10;5.95;;;1.05;;
18568;SDS011;14780;48.316;-1.050;2022-08-19T16:23:56;3.95;;;1.00;;
18568;SDS011;14780;48.316;-1.050;2022-08-19T16:26:43;5.80;;;1.00;;
18568;SDS011;14780;48.316;-1.050;2022-08-19T16:29:29;3.70;;;1.00;;
18568;SDS011;14780;48.316;-1.050;2022-08-19T16:32:14;3.75;;;0.90;;
18568;SDS011;14780;48.316;-1.050;2022-08-19T16:35:01;5.72;;;0.90;;
18568;SDS011;14780;48.316;-1.050;2022-08-19T16:37:48;4.45;;;0.75;;
18568;SDS011;14780;48.316;-1.050;2022-08-19T16:40:33;3.13;;;1.00;;